sensor_id;sensor_type;location;lat;lon;timestamp;P1;durP1;ratioP1;P2;durP2;ratioP2
59504;SDS011;45321;53.200;5.814;2024-03-08T00:01:35;43.92;;;26.33;;
59504;SDS011;45321;53.200;5.814;2024-03-08T00:04:01;44.05;;;26.85;;
59504;SDS011;45321;53.200;5.814;2024-03-08T00:06:27;41.55;;;26.63;;
59504;SDS011;45321;53.200;5.814;2024-03-08T00:08:52;44.83;;;28.55;;
59504;SDS011;45321;53.200;5.814;2024-03-08T00:11:18;42.40;;;27.98;;
59504;SDS011;45321;53.200;5.814;2024-03-08T00:13:44;47.90;;;30.02;;
59504;SDS011;45321;53.200;5.814;2024-03-08T00:16:10;45.58;;;28.70;;
59504;SDS011;45321;53.200;5.814;2024-03-08T00:18:36;39.92;;;25.30;;
59504;SDS011;45321;53.200;5.814;2024-03-08T00:21:01;37.85;;;24.75;;
59504;SDS011;45321;53.200;5.814;2024-03-08T00:23:27;43.35;;;27.35;;
59504;SDS011;45321;53.200;5.814;2024-03-08T00:25:53;41.15;;;25.13;;
59504;SDS011;45321;53.200;5.814;2024-03-08T00:28:20;47.42;;;29.80;;
59504;SDS011;45321;53.200;5.814;2024-03-08T00:30:46;41.88;;;27.10;;
59504;SDS011;45321;53.200;5.814;2024-03-08T00:33:12;45.22;;;28.20;;
59504;SDS011;45321;53.200;5.814;2024-03-08T00:35:38;49.17;;;28.83;;
59504;SDS011;45321;53.200;5.814;2024-03-08T00:38:04;48.55;;;29.13;;
59504;SDS011;45321;53.200;5.814;2024-03-08T00:40:30;48.67;;;28.02;;
59504;SDS011;45321;53.200;5.814;2024-03-08T00:42:55;44.20;;;27.08;;
59504;SDS011;45321;53.200;5.814;2024-03-08T00:45:21;44.67;;;28.08;;
59504;SDS011;45321;53.200;5.814;2024-03-08T00:47:48;43.35;;;28.20;;
59504;SDS011;45321;53.200;5.814;2024-03-08T00:50:14;47.45;;;28.45;;
59504;SDS011;45321;53.200;5.814;2024-03-08T00:52:40;42.55;;;29.05;;
59504;SDS011;45321;53.200;5.814;2024-03-08T00:55:06;46.00;;;27.85;;
59504;SDS011;45321;53.200;5.814;2024-03-08T00:57:33;47.65;;;30.25;;
59504;SDS011;45321;53.200;5.814;2024-03-08T00:59:58;40.53;;;27.17;;
59504;SDS011;45321;53.200;5.814;2024-03-08T01:02:24;43.78;;;27.88;;
59504;SDS011;45321;53.200;5.814;2024-03-08T01:04:50;48.08;;;29.73;;
59504;SDS011;45321;53.200;5.814;2024-03-08T01:07:16;56.28;;;32.95;;
59504;SDS011;45321;53.200;5.814;2024-03-08T01:09:41;49.42;;;30.48;;
59504;SDS011;45321;53.200;5.814;2024-03-08T01:12:07;44.65;;;28.35;;
59504;SDS011;45321;53.200;5.814;2024-03-08T01:14:33;51.15;;;31.38;;
59504;SDS011;45321;53.200;5.814;2024-03-08T01:16:59;46.53;;;30.55;;
59504;SDS011;45321;53.200;5.814;2024-03-08T01:19:24;48.70;;;31.33;;
59504;SDS011;45321;53.200;5.814;2024-03-08T01:21:50;49.83;;;29.73;;
59504;SDS011;45321;53.200;5.814;2024-03-08T01:24:16;50.03;;;29.38;;
59504;SDS011;45321;53.200;5.814;2024-03-08T01:26:42;50.40;;;30.23;;
59504;SDS011;45321;53.200;5.814;2024-03-08T01:29:08;48.17;;;31.90;;
59504;SDS011;45321;53.200;5.814;2024-03-08T01:31:34;48.35;;;28.45;;
59504;SDS011;45321;53.200;5.814;2024-03-08T01:34:01;44.67;;;28.67;;
59504;SDS011;45321;53.200;5.814;2024-03-08T01:36:27;45.35;;;29.65;;
59504;SDS011;45321;53.200;5.814;2024-03-08T01:38:53;49.13;;;31.52;;
59504;SDS011;45321;53.200;5.814;2024-03-08T01:41:18;48.17;;;30.27;;
59504;SDS011;45321;53.200;5.814;2024-03-08T01:43:45;50.83;;;31.63;;
59504;SDS011;45321;53.200;5.814;2024-03-08T01:46:11;52.50;;;33.97;;
59504;SDS011;45321;53.200;5.814;2024-03-08T01:48:41;55.42;;;34.28;;
59504;SDS011;45321;53.200;5.814;2024-03-08T01:51:08;46.78;;;30.65;;
59504;SDS011;45321;53.200;5.814;2024-03-08T01:53:34;57.75;;;31.90;;
59504;SDS011;45321;53.200;5.814;2024-03-08T01:56:00;54.55;;;34.72;;
59504;SDS011;45321;53.200;5.814;2024-03-08T01:58:27;53.85;;;30.88;;
59504;SDS011;45321;53.200;5.814;2024-03-08T02:00:54;55.25;;;32.85;;
59504;SDS011;45321;53.200;5.814;2024-03-08T02:03:22;49.72;;;30.85;;
59504;SDS011;45321;53.200;5.814;2024-03-08T02:05:47;55.35;;;32.67;;
59504;SDS011;45321;53.200;5.814;2024-03-08T02:08:14;51.75;;;32.13;;
59504;SDS011;45321;53.200;5.814;2024-03-08T02:10:41;57.42;;;32.80;;
59504;SDS011;45321;53.200;5.814;2024-03-08T02:13:08;55.38;;;32.97;;
59504;SDS011;45321;53.200;5.814;2024-03-08T02:18:20;48.90;;;30.60;;
59504;SDS011;45321;53.200;5.814;2024-03-08T02:20:47;61.88;;;38.03;;
59504;SDS011;45321;53.200;5.814;2024-03-08T02:23:17;60.33;;;35.15;;
59504;SDS011;45321;53.200;5.814;2024-03-08T02:25:44;57.47;;;34.67;;
59504;SDS011;45321;53.200;5.814;2024-03-08T02:28:11;54.08;;;33.40;;
59504;SDS011;45321;53.200;5.814;2024-03-08T02:30:37;58.78;;;35.13;;
59504;SDS011;45321;53.200;5.814;2024-03-08T02:33:04;47.88;;;30.70;;
59504;SDS011;45321;53.200;5.814;2024-03-08T02:35:31;56.38;;;33.28;;
59504;SDS011;45321;53.200;5.814;2024-03-08T02:37:57;57.58;;;33.83;;
59504;SDS011;45321;53.200;5.814;2024-03-08T02:40:23;64.00;;;36.80;;
59504;SDS011;45321;53.200;5.814;2024-03-08T02:42:49;56.15;;;32.28;;
59504;SDS011;45321;53.200;5.814;2024-03-08T02:45:15;53.30;;;32.75;;
59504;SDS011;45321;53.200;5.814;2024-03-08T02:47:40;56.28;;;35.15;;
59504;SDS011;45321;53.200;5.814;2024-03-08T02:50:06;58.55;;;35.70;;
59504;SDS011;45321;53.200;5.814;2024-03-08T02:52:35;56.50;;;33.60;;
59504;SDS011;45321;53.200;5.814;2024-03-08T02:55:04;56.85;;;34.20;;
59504;SDS011;45321;53.200;5.814;2024-03-08T02:57:31;60.92;;;35.75;;
59504;SDS011;45321;53.200;5.814;2024-03-08T02:59:57;57.15;;;35.47;;
59504;SDS011;45321;53.200;5.814;2024-03-08T03:02:24;59.90;;;35.28;;
59504;SDS011;45321;53.200;5.814;2024-03-08T03:04:51;55.28;;;33.65;;
59504;SDS011;45321;53.200;5.814;2024-03-08T03:07:17;64.85;;;36.10;;
59504;SDS011;45321;53.200;5.814;2024-03-08T03:09:44;58.63;;;36.45;;
59504;SDS011;45321;53.200;5.814;2024-03-08T03:12:10;57.05;;;33.15;;
59504;SDS011;45321;53.200;5.814;2024-03-08T03:14:36;59.03;;;34.80;;
59504;SDS011;45321;53.200;5.814;2024-03-08T03:17:05;53.85;;;33.53;;
59504;SDS011;45321;53.200;5.814;2024-03-08T03:19:30;54.25;;;34.55;;
59504;SDS011;45321;53.200;5.814;2024-03-08T03:21:56;56.90;;;34.65;;
59504;SDS011;45321;53.200;5.814;2024-03-08T03:24:22;59.88;;;35.47;;
59504;SDS011;45321;53.200;5.814;2024-03-08T03:26:48;57.47;;;33.97;;
59504;SDS011;45321;53.200;5.814;2024-03-08T03:29:14;64.97;;;38.45;;
59504;SDS011;45321;53.200;5.814;2024-03-08T03:31:42;58.00;;;34.95;;
59504;SDS011;45321;53.200;5.814;2024-03-08T03:34:11;61.53;;;37.40;;
59504;SDS011;45321;53.200;5.814;2024-03-08T03:36:38;63.72;;;38.22;;
59504;SDS011;45321;53.200;5.814;2024-03-08T03:39:08;60.65;;;35.90;;
59504;SDS011;45321;53.200;5.814;2024-03-08T03:41:41;54.95;;;34.35;;
59504;SDS011;45321;53.200;5.814;2024-03-08T03:44:07;53.30;;;32.65;;
59504;SDS011;45321;53.200;5.814;2024-03-08T03:46:33;57.42;;;34.83;;
59504;SDS011;45321;53.200;5.814;2024-03-08T03:48:59;59.10;;;35.45;;
59504;SDS011;45321;53.200;5.814;2024-03-08T03:51:25;53.67;;;32.70;;
59504;SDS011;45321;53.200;5.814;2024-03-08T03:53:51;55.53;;;33.15;;
59504;SDS011;45321;53.200;5.814;2024-03-08T03:56:18;52.00;;;32.63;;
59504;SDS011;45321;53.200;5.814;2024-03-08T03:58:44;48.45;;;30.77;;
59504;SDS011;45321;53.200;5.814;2024-03-08T04:01:10;47.55;;;29.30;;
59504;SDS011;45321;53.200;5.814;2024-03-08T04:03:35;59.45;;;33.28;;
59504;SDS011;45321;53.200;5.814;2024-03-08T04:06:03;56.63;;;33.80;;
59504;SDS011;45321;53.200;5.814;2024-03-08T04:08:29;54.63;;;33.70;;
59504;SDS011;45321;53.200;5.814;2024-03-08T04:10:56;53.90;;;33.03;;
59504;SDS011;45321;53.200;5.814;2024-03-08T04:13:23;48.45;;;29.75;;
59504;SDS011;45321;53.200;5.814;2024-03-08T04:15:49;54.92;;;32.30;;
59504;SDS011;45321;53.200;5.814;2024-03-08T04:18:14;52.08;;;30.95;;
59504;SDS011;45321;53.200;5.814;2024-03-08T04:20:40;55.67;;;33.63;;
59504;SDS011;45321;53.200;5.814;2024-03-08T04:23:06;51.78;;;31.30;;
59504;SDS011;45321;53.200;5.814;2024-03-08T04:25:32;53.78;;;32.67;;
59504;SDS011;45321;53.200;5.814;2024-03-08T04:27:58;53.33;;;31.70;;
59504;SDS011;45321;53.200;5.814;2024-03-08T04:30:24;55.25;;;34.38;;
59504;SDS011;45321;53.200;5.814;2024-03-08T04:32:50;53.50;;;30.63;;
59504;SDS011;45321;53.200;5.814;2024-03-08T04:35:16;47.83;;;31.17;;
59504;SDS011;45321;53.200;5.814;2024-03-08T04:37:42;51.40;;;31.52;;
59504;SDS011;45321;53.200;5.814;2024-03-08T04:40:07;41.78;;;28.17;;
59504;SDS011;45321;53.200;5.814;2024-03-08T04:42:33;48.90;;;31.42;;
59504;SDS011;45321;53.200;5.814;2024-03-08T04:45:02;51.03;;;30.63;;
59504;SDS011;45321;53.200;5.814;2024-03-08T04:47:29;55.60;;;33.70;;
59504;SDS011;45321;53.200;5.814;2024-03-08T04:49:55;50.90;;;30.67;;
59504;SDS011;45321;53.200;5.814;2024-03-08T04:52:21;48.70;;;30.08;;
59504;SDS011;45321;53.200;5.814;2024-03-08T04:54:47;48.88;;;29.88;;
59504;SDS011;45321;53.200;5.814;2024-03-08T04:57:13;47.95;;;30.60;;
59504;SDS011;45321;53.200;5.814;2024-03-08T04:59:39;50.75;;;31.10;;
59504;SDS011;45321;53.200;5.814;2024-03-08T05:02:05;46.35;;;29.67;;
59504;SDS011;45321;53.200;5.814;2024-03-08T05:04:32;55.03;;;32.38;;
59504;SDS011;45321;53.200;5.814;2024-03-08T05:06:58;51.63;;;33.35;;
59504;SDS011;45321;53.200;5.814;2024-03-08T05:09:26;56.72;;;35.42;;
59504;SDS011;45321;53.200;5.814;2024-03-08T05:11:54;54.22;;;32.65;;
59504;SDS011;45321;53.200;5.814;2024-03-08T05:14:20;47.80;;;29.58;;
59504;SDS011;45321;53.200;5.814;2024-03-08T05:16:46;51.53;;;31.30;;
59504;SDS011;45321;53.200;5.814;2024-03-08T05:19:18;49.63;;;29.48;;
59504;SDS011;45321;53.200;5.814;2024-03-08T05:21:45;48.80;;;31.80;;
59504;SDS011;45321;53.200;5.814;2024-03-08T05:24:13;51.50;;;31.55;;
59504;SDS011;45321;53.200;5.814;2024-03-08T05:26:40;49.83;;;31.60;;
59504;SDS011;45321;53.200;5.814;2024-03-08T05:29:07;56.92;;;34.17;;
59504;SDS011;45321;53.200;5.814;2024-03-08T05:31:38;58.22;;;36.85;;
59504;SDS011;45321;53.200;5.814;2024-03-08T05:34:12;51.72;;;30.08;;
59504;SDS011;45321;53.200;5.814;2024-03-08T05:36:40;51.08;;;32.30;;
59504;SDS011;45321;53.200;5.814;2024-03-08T05:39:08;54.42;;;33.58;;
59504;SDS011;45321;53.200;5.814;2024-03-08T05:41:37;51.97;;;32.47;;
59504;SDS011;45321;53.200;5.814;2024-03-08T05:44:04;49.90;;;31.27;;
59504;SDS011;45321;53.200;5.814;2024-03-08T05:46:30;58.33;;;34.88;;
59504;SDS011;45321;53.200;5.814;2024-03-08T05:48:56;49.50;;;30.92;;
59504;SDS011;45321;53.200;5.814;2024-03-08T05:51:23;52.92;;;32.58;;
59504;SDS011;45321;53.200;5.814;2024-03-08T05:53:51;48.33;;;30.27;;
59504;SDS011;45321;53.200;5.814;2024-03-08T05:56:18;48.03;;;30.83;;
59504;SDS011;45321;53.200;5.814;2024-03-08T05:58:44;55.17;;;33.20;;
59504;SDS011;45321;53.200;5.814;2024-03-08T06:01:10;50.53;;;31.13;;
59504;SDS011;45321;53.200;5.814;2024-03-08T06:03:38;47.88;;;27.55;;
59504;SDS011;45321;53.200;5.814;2024-03-08T06:06:13;50.67;;;30.70;;
59504;SDS011;45321;53.200;5.814;2024-03-08T06:08:39;48.58;;;30.85;;
59504;SDS011;45321;53.200;5.814;2024-03-08T06:11:08;53.72;;;33.50;;
59504;SDS011;45321;53.200;5.814;2024-03-08T06:13:34;59.10;;;34.67;;
59504;SDS011;45321;53.200;5.814;2024-03-08T06:16:00;53.70;;;32.63;;
59504;SDS011;45321;53.200;5.814;2024-03-08T06:18:29;51.13;;;31.17;;
59504;SDS011;45321;53.200;5.814;2024-03-08T06:20:56;56.20;;;33.20;;
59504;SDS011;45321;53.200;5.814;2024-03-08T06:23:22;60.17;;;35.22;;
59504;SDS011;45321;53.200;5.814;2024-03-08T06:25:48;46.65;;;30.23;;
59504;SDS011;45321;53.200;5.814;2024-03-08T06:28:14;51.25;;;32.38;;
59504;SDS011;45321;53.200;5.814;2024-03-08T06:30:40;50.55;;;31.17;;
59504;SDS011;45321;53.200;5.814;2024-03-08T06:33:06;51.03;;;31.67;;
59504;SDS011;45321;53.200;5.814;2024-03-08T06:35:35;55.25;;;33.35;;
59504;SDS011;45321;53.200;5.814;2024-03-08T06:38:03;53.40;;;31.50;;
59504;SDS011;45321;53.200;5.814;2024-03-08T06:40:29;54.50;;;32.60;;
59504;SDS011;45321;53.200;5.814;2024-03-08T06:42:55;45.97;;;30.95;;
59504;SDS011;45321;53.200;5.814;2024-03-08T06:45:21;53.90;;;33.65;;
59504;SDS011;45321;53.200;5.814;2024-03-08T06:47:48;48.88;;;30.20;;
59504;SDS011;45321;53.200;5.814;2024-03-08T06:50:15;51.40;;;32.17;;
59504;SDS011;45321;53.200;5.814;2024-03-08T06:52:41;56.17;;;33.83;;
59504;SDS011;45321;53.200;5.814;2024-03-08T06:55:11;50.25;;;30.63;;
59504;SDS011;45321;53.200;5.814;2024-03-08T06:57:40;53.58;;;33.60;;
59504;SDS011;45321;53.200;5.814;2024-03-08T07:00:07;53.50;;;31.83;;
59504;SDS011;45321;53.200;5.814;2024-03-08T07:02:40;42.30;;;28.75;;
59504;SDS011;45321;53.200;5.814;2024-03-08T07:05:06;48.97;;;32.08;;
59504;SDS011;45321;53.200;5.814;2024-03-08T07:07:35;48.70;;;28.27;;
59504;SDS011;45321;53.200;5.814;2024-03-08T07:10:02;53.03;;;31.75;;
59504;SDS011;45321;53.200;5.814;2024-03-08T07:12:28;47.65;;;30.02;;
59504;SDS011;45321;53.200;5.814;2024-03-08T07:14:54;48.80;;;30.42;;
59504;SDS011;45321;53.200;5.814;2024-03-08T07:17:20;47.97;;;29.55;;
59504;SDS011;45321;53.200;5.814;2024-03-08T07:19:45;50.08;;;30.83;;
59504;SDS011;45321;53.200;5.814;2024-03-08T07:22:11;49.15;;;29.55;;
59504;SDS011;45321;53.200;5.814;2024-03-08T07:24:40;45.08;;;28.10;;
59504;SDS011;45321;53.200;5.814;2024-03-08T07:27:24;43.53;;;28.48;;
59504;SDS011;45321;53.200;5.814;2024-03-08T07:29:49;49.80;;;30.10;;
59504;SDS011;45321;53.200;5.814;2024-03-08T07:32:15;48.13;;;29.35;;
59504;SDS011;45321;53.200;5.814;2024-03-08T07:34:47;49.70;;;29.25;;
59504;SDS011;45321;53.200;5.814;2024-03-08T07:37:14;42.65;;;27.58;;
59504;SDS011;45321;53.200;5.814;2024-03-08T07:39:39;43.22;;;27.90;;
59504;SDS011;45321;53.200;5.814;2024-03-08T07:42:05;53.42;;;31.08;;
59504;SDS011;45321;53.200;5.814;2024-03-08T07:44:31;47.03;;;26.58;;
59504;SDS011;45321;53.200;5.814;2024-03-08T07:46:57;42.30;;;28.13;;
59504;SDS011;45321;53.200;5.814;2024-03-08T07:49:23;40.67;;;26.60;;
59504;SDS011;45321;53.200;5.814;2024-03-08T07:51:49;40.92;;;27.27;;
59504;SDS011;45321;53.200;5.814;2024-03-08T07:54:17;37.63;;;24.65;;
59504;SDS011;45321;53.200;5.814;2024-03-08T07:56:42;48.08;;;29.80;;
59504;SDS011;45321;53.200;5.814;2024-03-08T07:59:08;42.90;;;26.50;;
59504;SDS011;45321;53.200;5.814;2024-03-08T08:01:36;37.92;;;24.58;;
59504;SDS011;45321;53.200;5.814;2024-03-08T08:04:01;42.35;;;24.85;;
59504;SDS011;45321;53.200;5.814;2024-03-08T08:06:27;44.90;;;26.42;;
59504;SDS011;45321;53.200;5.814;2024-03-08T08:08:57;33.70;;;22.83;;
59504;SDS011;45321;53.200;5.814;2024-03-08T08:11:22;44.03;;;25.77;;
59504;SDS011;45321;53.200;5.814;2024-03-08T08:13:50;42.85;;;25.60;;
59504;SDS011;45321;53.200;5.814;2024-03-08T08:16:16;38.85;;;23.67;;
59504;SDS011;45321;53.200;5.814;2024-03-08T08:18:42;37.00;;;24.05;;
59504;SDS011;45321;53.200;5.814;2024-03-08T08:21:11;35.90;;;22.55;;
59504;SDS011;45321;53.200;5.814;2024-03-08T08:23:37;37.30;;;24.23;;
59504;SDS011;45321;53.200;5.814;2024-03-08T08:26:03;38.38;;;24.65;;
59504;SDS011;45321;53.200;5.814;2024-03-08T08:28:29;41.25;;;26.75;;
59504;SDS011;45321;53.200;5.814;2024-03-08T08:30:56;37.20;;;24.08;;
59504;SDS011;45321;53.200;5.814;2024-03-08T08:33:21;37.55;;;24.17;;
59504;SDS011;45321;53.200;5.814;2024-03-08T08:35:47;41.33;;;25.20;;
59504;SDS011;45321;53.200;5.814;2024-03-08T08:38:13;33.88;;;24.25;;
59504;SDS011;45321;53.200;5.814;2024-03-08T08:40:39;34.50;;;23.55;;
59504;SDS011;45321;53.200;5.814;2024-03-08T08:43:04;45.03;;;25.90;;
59504;SDS011;45321;53.200;5.814;2024-03-08T08:45:31;35.67;;;24.35;;
59504;SDS011;45321;53.200;5.814;2024-03-08T08:47:57;35.38;;;23.83;;
59504;SDS011;45321;53.200;5.814;2024-03-08T08:50:25;35.28;;;23.63;;
59504;SDS011;45321;53.200;5.814;2024-03-08T08:52:52;31.92;;;22.27;;
59504;SDS011;45321;53.200;5.814;2024-03-08T08:55:18;35.10;;;23.90;;
59504;SDS011;45321;53.200;5.814;2024-03-08T08:57:46;38.67;;;24.40;;
59504;SDS011;45321;53.200;5.814;2024-03-08T09:00:17;31.67;;;22.35;;
59504;SDS011;45321;53.200;5.814;2024-03-08T09:02:45;37.17;;;23.45;;
59504;SDS011;45321;53.200;5.814;2024-03-08T09:05:12;37.03;;;25.40;;
59504;SDS011;45321;53.200;5.814;2024-03-08T09:07:39;36.47;;;24.85;;
59504;SDS011;45321;53.200;5.814;2024-03-08T09:10:05;38.72;;;23.02;;
59504;SDS011;45321;53.200;5.814;2024-03-08T09:12:34;34.00;;;23.52;;
59504;SDS011;45321;53.200;5.814;2024-03-08T09:15:00;34.17;;;24.45;;
59504;SDS011;45321;53.200;5.814;2024-03-08T09:17:26;40.70;;;26.20;;
59504;SDS011;45321;53.200;5.814;2024-03-08T09:19:51;34.58;;;23.85;;
59504;SDS011;45321;53.200;5.814;2024-03-08T09:22:17;34.63;;;24.20;;
59504;SDS011;45321;53.200;5.814;2024-03-08T09:24:43;36.05;;;24.30;;
59504;SDS011;45321;53.200;5.814;2024-03-08T09:27:09;38.50;;;27.10;;
59504;SDS011;45321;53.200;5.814;2024-03-08T09:29:35;39.58;;;27.70;;
59504;SDS011;45321;53.200;5.814;2024-03-08T09:32:01;36.83;;;25.55;;
59504;SDS011;45321;53.200;5.814;2024-03-08T09:34:27;34.33;;;23.83;;
59504;SDS011;45321;53.200;5.814;2024-03-08T09:36:52;34.33;;;24.30;;
59504;SDS011;45321;53.200;5.814;2024-03-08T09:39:18;32.78;;;22.98;;
59504;SDS011;45321;53.200;5.814;2024-03-08T09:41:46;35.45;;;24.83;;
59504;SDS011;45321;53.200;5.814;2024-03-08T09:44:15;34.78;;;23.45;;
59504;SDS011;45321;53.200;5.814;2024-03-08T09:46:41;30.35;;;22.67;;
59504;SDS011;45321;53.200;5.814;2024-03-08T09:49:07;34.17;;;24.45;;
59504;SDS011;45321;53.200;5.814;2024-03-08T09:51:34;31.58;;;22.63;;
59504;SDS011;45321;53.200;5.814;2024-03-08T09:54:01;32.70;;;22.80;;
59504;SDS011;45321;53.200;5.814;2024-03-08T09:56:31;33.25;;;23.23;;
59504;SDS011;45321;53.200;5.814;2024-03-08T09:59:01;35.40;;;23.38;;
59504;SDS011;45321;53.200;5.814;2024-03-08T10:01:50;29.85;;;21.55;;
59504;SDS011;45321;53.200;5.814;2024-03-08T10:04:17;31.23;;;23.63;;
59504;SDS011;45321;53.200;5.814;2024-03-08T10:06:45;33.35;;;23.08;;
59504;SDS011;45321;53.200;5.814;2024-03-08T10:09:12;33.15;;;24.30;;
59504;SDS011;45321;53.200;5.814;2024-03-08T10:11:39;36.00;;;24.13;;
59504;SDS011;45321;53.200;5.814;2024-03-08T10:14:05;32.33;;;23.73;;
59504;SDS011;45321;53.200;5.814;2024-03-08T10:16:33;31.42;;;23.27;;
59504;SDS011;45321;53.200;5.814;2024-03-08T10:19:00;31.42;;;22.60;;
59504;SDS011;45321;53.200;5.814;2024-03-08T10:21:26;31.25;;;22.88;;
59504;SDS011;45321;53.200;5.814;2024-03-08T10:23:52;32.70;;;23.85;;
59504;SDS011;45321;53.200;5.814;2024-03-08T10:26:18;34.75;;;25.92;;
59504;SDS011;45321;53.200;5.814;2024-03-08T10:28:47;33.85;;;23.60;;
59504;SDS011;45321;53.200;5.814;2024-03-08T10:31:14;31.33;;;23.52;;
59504;SDS011;45321;53.200;5.814;2024-03-08T10:33:40;31.17;;;23.05;;
59504;SDS011;45321;53.200;5.814;2024-03-08T10:36:07;30.63;;;23.92;;
59504;SDS011;45321;53.200;5.814;2024-03-08T10:38:35;33.58;;;23.30;;
59504;SDS011;45321;53.200;5.814;2024-03-08T10:41:02;31.63;;;24.00;;
59504;SDS011;45321;53.200;5.814;2024-03-08T10:43:31;35.92;;;26.20;;
59504;SDS011;45321;53.200;5.814;2024-03-08T10:48:48;38.45;;;26.40;;
59504;SDS011;45321;53.200;5.814;2024-03-08T10:51:17;27.75;;;22.13;;
59504;SDS011;45321;53.200;5.814;2024-03-08T10:53:45;30.83;;;22.20;;
59504;SDS011;45321;53.200;5.814;2024-03-08T10:56:13;32.30;;;23.90;;
59504;SDS011;45321;53.200;5.814;2024-03-08T10:58:39;31.75;;;23.95;;
59504;SDS011;45321;53.200;5.814;2024-03-08T11:01:07;29.98;;;22.95;;
59504;SDS011;45321;53.200;5.814;2024-03-08T11:08:51;28.98;;;22.83;;
59504;SDS011;45321;53.200;5.814;2024-03-08T11:11:29;31.42;;;24.02;;
59504;SDS011;45321;53.200;5.814;2024-03-08T11:13:57;27.95;;;22.98;;
59504;SDS011;45321;53.200;5.814;2024-03-08T11:19:05;30.25;;;24.17;;
59504;SDS011;45321;53.200;5.814;2024-03-08T11:21:56;32.08;;;23.88;;
59504;SDS011;45321;53.200;5.814;2024-03-08T11:24:26;30.30;;;23.58;;
59504;SDS011;45321;53.200;5.814;2024-03-08T11:26:56;31.02;;;22.88;;
59504;SDS011;45321;53.200;5.814;2024-03-08T11:32:04;28.15;;;23.02;;
59504;SDS011;45321;53.200;5.814;2024-03-08T11:34:47;27.42;;;22.45;;
59504;SDS011;45321;53.200;5.814;2024-03-08T11:37:18;30.15;;;22.65;;
59504;SDS011;45321;53.200;5.814;2024-03-08T11:39:51;28.00;;;22.30;;
59504;SDS011;45321;53.200;5.814;2024-03-08T11:42:23;28.92;;;23.58;;
59504;SDS011;45321;53.200;5.814;2024-03-08T11:44:51;29.13;;;22.75;;
59504;SDS011;45321;53.200;5.814;2024-03-08T11:47:20;25.45;;;21.45;;
59504;SDS011;45321;53.200;5.814;2024-03-08T11:49:46;27.27;;;21.88;;
59504;SDS011;45321;53.200;5.814;2024-03-08T11:52:16;28.58;;;22.45;;
59504;SDS011;45321;53.200;5.814;2024-03-08T11:54:47;25.63;;;21.38;;
59504;SDS011;45321;53.200;5.814;2024-03-08T11:57:19;28.92;;;22.95;;
59504;SDS011;45321;53.200;5.814;2024-03-08T11:59:53;27.73;;;23.25;;
59504;SDS011;45321;53.200;5.814;2024-03-08T12:02:23;27.52;;;23.10;;
59504;SDS011;45321;53.200;5.814;2024-03-08T12:04:59;30.48;;;24.33;;
59504;SDS011;45321;53.200;5.814;2024-03-08T12:07:28;30.05;;;24.25;;
59504;SDS011;45321;53.200;5.814;2024-03-08T12:12:46;26.30;;;21.70;;
59504;SDS011;45321;53.200;5.814;2024-03-08T12:15:15;28.38;;;23.30;;
59504;SDS011;45321;53.200;5.814;2024-03-08T12:17:41;31.38;;;24.85;;
59504;SDS011;45321;53.200;5.814;2024-03-08T12:20:16;25.35;;;22.65;;
59504;SDS011;45321;53.200;5.814;2024-03-08T12:22:44;29.90;;;23.92;;
59504;SDS011;45321;53.200;5.814;2024-03-08T12:25:13;23.85;;;20.92;;
59504;SDS011;45321;53.200;5.814;2024-03-08T12:27:39;22.92;;;20.52;;
59504;SDS011;45321;53.200;5.814;2024-03-08T12:30:22;25.10;;;22.48;;
59504;SDS011;45321;53.200;5.814;2024-03-08T12:35:30;25.45;;;21.00;;
59504;SDS011;45321;53.200;5.814;2024-03-08T12:37:58;22.75;;;19.83;;
59504;SDS011;45321;53.200;5.814;2024-03-08T12:40:28;23.73;;;21.25;;
59504;SDS011;45321;53.200;5.814;2024-03-08T12:42:57;24.90;;;21.40;;
59504;SDS011;45321;53.200;5.814;2024-03-08T12:45:23;24.13;;;20.48;;
59504;SDS011;45321;53.200;5.814;2024-03-08T12:47:50;26.38;;;21.17;;
59504;SDS011;45321;53.200;5.814;2024-03-08T12:50:16;26.02;;;22.27;;
59504;SDS011;45321;53.200;5.814;2024-03-08T12:52:43;24.10;;;20.65;;
59504;SDS011;45321;53.200;5.814;2024-03-08T12:55:09;25.10;;;20.77;;
59504;SDS011;45321;53.200;5.814;2024-03-08T12:57:35;23.45;;;20.90;;
59504;SDS011;45321;53.200;5.814;2024-03-08T13:00:03;21.83;;;19.52;;
59504;SDS011;45321;53.200;5.814;2024-03-08T13:02:29;25.83;;;20.48;;
59504;SDS011;45321;53.200;5.814;2024-03-08T13:04:57;23.77;;;20.63;;
59504;SDS011;45321;53.200;5.814;2024-03-08T13:07:23;23.92;;;21.33;;
59504;SDS011;45321;53.200;5.814;2024-03-08T13:09:54;26.27;;;21.70;;
59504;SDS011;45321;53.200;5.814;2024-03-08T13:12:23;26.27;;;21.38;;
59504;SDS011;45321;53.200;5.814;2024-03-08T13:14:49;25.52;;;20.58;;
59504;SDS011;45321;53.200;5.814;2024-03-08T13:17:15;25.10;;;22.45;;
59504;SDS011;45321;53.200;5.814;2024-03-08T13:19:41;29.60;;;24.95;;
59504;SDS011;45321;53.200;5.814;2024-03-08T13:22:07;27.55;;;24.35;;
59504;SDS011;45321;53.200;5.814;2024-03-08T13:24:43;25.75;;;23.00;;
59504;SDS011;45321;53.200;5.814;2024-03-08T13:27:10;28.40;;;25.50;;
59504;SDS011;45321;53.200;5.814;2024-03-08T13:29:45;31.53;;;27.97;;
59504;SDS011;45321;53.200;5.814;2024-03-08T13:32:12;27.92;;;25.00;;
59504;SDS011;45321;53.200;5.814;2024-03-08T13:34:42;28.30;;;24.10;;
59504;SDS011;45321;53.200;5.814;2024-03-08T13:37:08;24.23;;;21.65;;
59504;SDS011;45321;53.200;5.814;2024-03-08T13:39:36;25.80;;;23.17;;
59504;SDS011;45321;53.200;5.814;2024-03-08T13:42:15;24.20;;;21.45;;
59504;SDS011;45321;53.200;5.814;2024-03-08T13:44:45;24.30;;;21.73;;
59504;SDS011;45321;53.200;5.814;2024-03-08T13:47:12;24.75;;;20.92;;
59504;SDS011;45321;53.200;5.814;2024-03-08T13:49:42;26.95;;;23.95;;
59504;SDS011;45321;53.200;5.814;2024-03-08T13:52:09;28.20;;;25.23;;
59504;SDS011;45321;53.200;5.814;2024-03-08T13:54:36;22.92;;;20.38;;
59504;SDS011;45321;53.200;5.814;2024-03-08T13:57:03;23.67;;;21.15;;
59504;SDS011;45321;53.200;5.814;2024-03-08T13:59:30;24.80;;;22.17;;
59504;SDS011;45321;53.200;5.814;2024-03-08T14:01:58;27.45;;;24.55;;
59504;SDS011;45321;53.200;5.814;2024-03-08T14:04:26;26.00;;;23.20;;
59504;SDS011;45321;53.200;5.814;2024-03-08T14:06:52;25.10;;;22.55;;
59504;SDS011;45321;53.200;5.814;2024-03-08T14:09:22;24.25;;;21.70;;
59504;SDS011;45321;53.200;5.814;2024-03-08T14:11:50;22.38;;;19.83;;
59504;SDS011;45321;53.200;5.814;2024-03-08T14:14:20;25.52;;;22.83;;
59504;SDS011;45321;53.200;5.814;2024-03-08T14:16:48;30.27;;;27.00;;
59504;SDS011;45321;53.200;5.814;2024-03-08T14:19:17;26.38;;;23.55;;
59504;SDS011;45321;53.200;5.814;2024-03-08T14:21:46;26.45;;;23.75;;
59504;SDS011;45321;53.200;5.814;2024-03-08T14:24:17;27.88;;;24.98;;
59504;SDS011;45321;53.200;5.814;2024-03-08T14:26:43;25.55;;;22.88;;
59504;SDS011;45321;53.200;5.814;2024-03-08T14:29:10;22.23;;;19.88;;
59504;SDS011;45321;53.200;5.814;2024-03-08T14:31:38;20.83;;;17.75;;
59504;SDS011;45321;53.200;5.814;2024-03-08T14:34:05;19.20;;;17.23;;
59504;SDS011;45321;53.200;5.814;2024-03-08T14:36:32;23.80;;;20.30;;
59504;SDS011;45321;53.200;5.814;2024-03-08T14:38:58;23.05;;;20.58;;
59504;SDS011;45321;53.200;5.814;2024-03-08T14:41:23;23.63;;;18.75;;
59504;SDS011;45321;53.200;5.814;2024-03-08T14:43:49;19.77;;;17.83;;